createdAt,value
2018-11-23T00:00:27.749Z,-0.99
2018-11-23T00:01:35.815Z,-1.01
2018-11-23T00:02:43.852Z,-1.01
2018-11-23T00:03:51.935Z,-1.12
2018-11-23T00:04:59.990Z,-0.99
2018-11-23T00:06:08.034Z,-1.01
2018-11-23T00:07:16.079Z,-1.04
2018-11-23T00:08:24.123Z,-1.09
2018-11-23T00:09:32.208Z,-1.04
2018-11-23T00:10:40.285Z,-1.12
2018-11-23T00:11:48.309Z,-0.99
2018-11-23T00:12:56.378Z,-1.04
2018-11-23T00:14:04.422Z,-0.99
2018-11-23T00:15:12.456Z,-1.05
2018-11-23T00:16:20.525Z,-1.05
2018-11-23T00:17:28.600Z,-0.98
2018-11-23T00:18:36.664Z,-1.05
2018-11-23T00:19:44.699Z,-1.05
2018-11-23T00:20:52.777Z,-1.05
2018-11-23T00:22:00.898Z,-0.99
2018-11-23T00:23:08.983Z,-1.02
2018-11-23T00:24:16.903Z,-1.09
2018-11-23T00:25:24.998Z,-1.01
2018-11-23T00:26:33.136Z,-1.15
2018-11-23T00:27:41.067Z,-1.15
2018-11-23T00:28:49.152Z,-1.22
2018-11-23T00:29:57.182Z,-1.30
2018-11-23T00:31:05.237Z,-1.16
2018-11-23T00:32:13.315Z,-1.15
2018-11-23T00:33:21.377Z,-1.27
2018-11-23T00:34:29.416Z,-1.28
2018-11-23T00:35:37.465Z,-1.17
2018-11-23T00:36:45.522Z,-1.23
2018-11-23T00:37:53.565Z,-1.20
2018-11-23T00:39:01.631Z,-1.22
2018-11-23T00:40:09.688Z,-1.30
2018-11-23T00:41:17.741Z,-1.25
2018-11-23T00:42:25.814Z,-1.25
2018-11-23T00:43:33.860Z,-1.28
2018-11-23T00:44:41.925Z,-1.37
2018-11-23T00:45:49.970Z,-1.37
2018-11-23T00:46:58.015Z,-1.40
2018-11-23T00:48:06.056Z,-1.35
2018-11-23T00:49:14.117Z,-1.23
2018-11-23T00:50:22.210Z,-1.23
2018-11-23T00:51:30.252Z,-1.22
2018-11-23T00:52:38.293Z,-1.20
2018-11-23T00:53:46.344Z,-1.22
2018-11-23T00:54:54.411Z,-1.25
2018-11-23T00:56:02.491Z,-1.25
2018-11-23T00:57:10.522Z,-1.15
2018-11-23T00:58:18.574Z,-1.13
2018-11-23T00:59:26.645Z,-1.17
2018-11-23T01:00:34.699Z,-1.15
2018-11-23T01:01:42.766Z,-1.09
2018-11-23T01:02:50.803Z,-1.31
2018-11-23T01:03:58.876Z,-1.19
2018-11-23T01:05:06.909Z,-1.33
2018-11-23T01:06:14.962Z,-1.25
2018-11-23T01:07:23.030Z,-1.37
2018-11-23T01:08:31.063Z,-1.37
2018-11-23T01:09:39.149Z,-1.31
2018-11-23T01:10:47.204Z,-1.34
2018-11-23T01:11:55.256Z,-1.35
2018-11-23T01:13:03.300Z,-1.43
2018-11-23T01:14:11.351Z,-1.43
2018-11-23T01:15:19.414Z,-1.34
2018-11-23T01:16:27.462Z,-1.48
2018-11-23T01:17:35.523Z,-1.46
2018-11-23T01:18:43.569Z,-1.58
2018-11-23T01:19:51.635Z,-1.48
2018-11-23T01:20:59.727Z,-1.52
2018-11-23T01:22:07.758Z,-1.51
2018-11-23T01:23:15.801Z,-1.54
2018-11-23T01:24:23.818Z,-1.54
2018-11-23T01:25:31.908Z,-1.67
2018-11-23T01:26:40.008Z,-1.74
2018-11-23T01:27:48.026Z,-1.76
2018-11-23T01:28:56.073Z,-1.73
2018-11-23T01:30:04.134Z,-1.76
2018-11-23T01:31:12.197Z,-1.80
2018-11-23T01:32:20.247Z,-1.85
2018-11-23T01:33:28.299Z,-1.87
2018-11-23T01:34:36.355Z,-1.95
2018-11-23T01:35:44.413Z,-1.91
2018-11-23T01:36:52.459Z,-1.87
2018-11-23T01:38:00.549Z,-1.92
2018-11-23T01:39:08.571Z,-1.92
2018-11-23T01:40:16.704Z,-1.95
2018-11-23T01:41:24.695Z,-1.91
2018-11-23T01:42:32.731Z,-1.91
2018-11-23T01:43:40.817Z,-1.92
2018-11-23T01:44:48.884Z,-1.97
2018-11-23T01:45:56.923Z,-1.95
2018-11-23T01:47:04.961Z,-1.94
2018-11-23T01:48:13.021Z,-2.00
2018-11-23T01:49:21.073Z,-1.95
2018-11-23T01:50:29.141Z,-1.97
2018-11-23T01:51:37.192Z,-2.08
2018-11-23T01:52:45.236Z,-1.92
2018-11-23T01:53:53.281Z,-1.90
2018-11-23T01:55:01.447Z,-1.95
2018-11-23T01:56:09.606Z,-1.98
2018-11-23T01:57:17.599Z,-1.95
2018-11-23T01:58:25.649Z,-1.92
2018-11-23T01:59:33.559Z,-1.92
2018-11-23T02:00:41.731Z,-1.91
2018-11-23T02:01:49.784Z,-1.79
2018-11-23T02:02:57.858Z,-1.73
2018-11-23T02:04:05.812Z,-1.73
2018-11-23T02:05:13.843Z,-1.66
2018-11-23T02:06:21.911Z,-1.66
2018-11-23T02:07:30.029Z,-1.66
2018-11-23T02:08:38.099Z,-1.56
2018-11-23T02:09:46.169Z,-1.59
2018-11-23T02:10:54.295Z,-1.52
2018-11-23T02:12:02.224Z,-1.48
2018-11-23T02:13:10.330Z,-1.40
2018-11-23T02:14:18.405Z,-1.34
2018-11-23T02:15:26.470Z,-1.43
2018-11-23T02:16:34.409Z,-1.45
2018-11-23T02:17:42.564Z,-1.41
2018-11-23T02:18:50.647Z,-1.30
2018-11-23T02:19:58.698Z,-1.31
2018-11-23T02:21:06.723Z,-1.37
2018-11-23T02:22:14.783Z,-1.35
2018-11-23T02:23:22.846Z,-1.27
2018-11-23T02:24:30.941Z,-1.22
2018-11-23T02:25:38.857Z,-1.28
2018-11-23T02:26:46.905Z,-1.35
2018-11-23T02:27:54.988Z,-1.31
2018-11-23T02:29:03.003Z,-1.37
2018-11-23T02:30:11.051Z,-1.27
2018-11-23T02:31:19.132Z,-1.37
2018-11-23T02:32:27.188Z,-1.23
2018-11-23T02:33:35.255Z,-1.27
2018-11-23T02:34:50.581Z,-1.20
2018-11-23T02:35:51.351Z,-1.17
2018-11-23T02:36:59.406Z,-1.10
2018-11-23T02:38:07.470Z,-1.10
2018-11-23T02:39:15.536Z,-1.22
2018-11-23T02:40:23.566Z,-1.15
2018-11-23T02:41:31.644Z,-1.15
2018-11-23T02:42:39.701Z,-1.16
2018-11-23T02:43:47.756Z,-1.15
2018-11-23T02:44:55.810Z,-1.02
2018-11-23T02:46:03.840Z,-1.07
2018-11-23T02:47:11.889Z,-1.07
2018-11-23T02:48:19.993Z,-1.07
2018-11-23T02:49:28.019Z,-0.98
2018-11-23T02:50:36.070Z,-1.09
2018-11-23T02:51:44.123Z,-1.13
2018-11-23T02:52:52.203Z,-0.97
2018-11-23T02:54:00.246Z,-0.98
2018-11-23T02:55:08.322Z,-0.97
2018-11-23T02:56:16.373Z,-1.10
2018-11-23T02:57:24.421Z,-0.98
2018-11-23T02:58:32.482Z,-0.99
2018-11-23T02:59:40.543Z,-0.98
2018-11-23T03:00:48.603Z,-0.98
2018-11-23T03:01:56.665Z,-1.01
2018-11-23T03:03:04.723Z,-0.99
2018-11-23T03:04:12.751Z,-0.92
2018-11-23T03:05:20.828Z,-0.95
2018-11-23T03:06:28.873Z,-0.97
2018-11-23T03:07:36.928Z,-0.99
2018-11-23T03:08:44.988Z,-0.92
2018-11-23T03:09:53.056Z,-1.07
2018-11-23T03:11:01.104Z,-0.91
2018-11-23T03:12:09.147Z,-0.99
2018-11-23T03:13:17.227Z,-0.95
2018-11-23T03:14:25.284Z,-0.95
2018-11-23T03:15:33.330Z,-1.04
2018-11-23T03:16:41.395Z,-0.94
2018-11-23T03:17:49.446Z,-0.94
2018-11-23T03:18:57.512Z,-0.95
2018-11-23T03:20:05.585Z,-0.92
2018-11-23T03:21:13.623Z,-0.92
2018-11-23T03:22:21.677Z,-0.91
2018-11-23T03:23:29.699Z,-0.92
2018-11-23T03:24:37.799Z,-0.83
2018-11-23T03:25:45.847Z,-0.92
2018-11-23T03:26:53.868Z,-0.85
2018-11-23T03:28:01.951Z,-0.86
2018-11-23T03:29:10.011Z,-0.80
2018-11-23T03:30:18.091Z,-0.85
2018-11-23T03:31:26.136Z,-0.80
2018-11-23T03:32:34.160Z,-0.79
2018-11-23T03:33:42.240Z,-0.80
2018-11-23T03:34:50.328Z,-0.78
2018-11-23T03:35:58.339Z,-0.78
2018-11-23T03:37:06.401Z,-0.72
2018-11-23T03:38:14.445Z,-0.78
2018-11-23T03:39:22.511Z,-0.72
2018-11-23T03:40:30.602Z,-0.73
2018-11-23T03:41:38.641Z,-0.72
2018-11-23T03:42:46.680Z,-0.76
2018-11-23T03:43:54.736Z,-0.78
2018-11-23T03:45:02.929Z,-0.79
2018-11-23T03:46:10.922Z,-0.67
2018-11-23T03:47:19.021Z,-0.78
2018-11-23T03:48:27.039Z,-0.70
2018-11-23T03:49:35.147Z,-0.67
2018-11-23T03:50:43.083Z,-0.76
2018-11-23T03:51:51.236Z,-0.73
2018-11-23T03:53:00.374Z,-0.75
2018-11-23T03:54:07.348Z,-0.76
2018-11-23T03:55:15.295Z,-0.73
2018-11-23T03:56:23.449Z,-0.65
2018-11-23T03:57:31.549Z,-0.72
2018-11-23T03:58:39.533Z,-0.69
2018-11-23T03:59:47.706Z,-0.72
2018-11-23T04:00:55.692Z,-0.75
2018-11-23T04:02:03.754Z,-0.70
2018-11-23T04:03:11.787Z,-0.79
2018-11-23T04:04:19.754Z,-0.79
2018-11-23T04:05:27.817Z,-0.76
2018-11-23T04:06:35.961Z,-0.79
2018-11-23T04:07:44.025Z,-0.83
2018-11-23T04:08:52.089Z,-0.80
2018-11-23T04:10:00.178Z,-0.78
2018-11-23T04:11:08.173Z,-0.82
2018-11-23T04:12:16.270Z,-0.79
2018-11-23T04:13:24.330Z,-0.78
2018-11-23T04:14:32.361Z,-0.82
2018-11-23T04:15:40.323Z,-0.80
2018-11-23T04:16:48.392Z,-0.76
2018-11-23T04:17:56.433Z,-0.82
2018-11-23T04:19:04.490Z,-0.85
2018-11-23T04:20:12.572Z,-0.86
2018-11-23T04:21:20.613Z,-0.91
2018-11-23T04:22:28.665Z,-0.82
2018-11-23T04:23:36.722Z,-0.82
2018-11-23T04:24:44.771Z,-0.92
2018-11-23T04:25:52.837Z,-0.86
2018-11-23T04:27:00.905Z,-0.83
2018-11-23T04:28:08.939Z,-0.92
2018-11-23T04:29:16.996Z,-0.92
2018-11-23T04:30:25.045Z,-0.92
2018-11-23T04:31:33.106Z,-0.95
2018-11-23T04:32:41.193Z,-0.91
2018-11-23T04:33:49.235Z,-0.95
2018-11-23T04:34:57.305Z,-0.92
2018-11-23T04:36:05.363Z,-0.91
2018-11-23T04:37:13.407Z,-0.89
2018-11-23T04:38:21.463Z,-0.91
2018-11-23T04:39:29.512Z,-0.89
2018-11-23T04:40:37.555Z,-0.89
2018-11-23T04:41:46.336Z,-0.85
2018-11-23T04:42:53.724Z,-0.82
2018-11-23T04:44:01.730Z,-0.85
2018-11-23T04:45:09.787Z,-0.85
2018-11-23T04:46:17.856Z,-0.89
2018-11-23T04:47:25.911Z,-0.94
2018-11-23T04:48:33.968Z,-0.94
2018-11-23T04:49:42.007Z,-0.95
2018-11-23T04:50:50.073Z,-1.01
2018-11-23T04:51:58.152Z,-0.97
2018-11-23T04:53:06.202Z,-0.92
2018-11-23T04:54:14.226Z,-0.92
2018-11-23T04:55:22.286Z,-0.94
2018-11-23T04:56:30.351Z,-0.89
2018-11-23T04:57:38.417Z,-0.86
2018-11-23T04:58:46.467Z,-0.83
2018-11-23T04:59:54.524Z,-0.92
2018-11-23T05:01:02.589Z,-0.89
2018-11-23T05:02:10.655Z,-0.85
2018-11-23T05:03:18.674Z,-0.83
2018-11-23T05:04:26.763Z,-0.89
2018-11-23T05:05:34.809Z,-0.95
2018-11-23T05:06:42.855Z,-0.94
2018-11-23T05:07:50.910Z,-0.94
2018-11-23T05:08:58.981Z,-0.91
2018-11-23T05:10:07.019Z,-0.91
2018-11-23T05:11:15.094Z,-1.04
2018-11-23T05:12:23.162Z,-0.99
2018-11-23T05:13:31.220Z,-1.09
2018-11-23T05:14:39.257Z,-1.05
2018-11-23T05:15:47.415Z,-1.01
2018-11-23T05:16:56.579Z,-1.02
2018-11-23T05:18:03.466Z,-1.09
2018-11-23T05:19:11.477Z,-1.09
2018-11-23T05:20:19.883Z,-1.05
2018-11-23T05:21:27.705Z,-1.16
2018-11-23T05:22:35.723Z,-1.13
2018-11-23T05:23:43.796Z,-1.16
2018-11-23T05:24:51.871Z,-1.13
2018-11-23T05:25:59.826Z,-1.16
2018-11-23T05:27:07.870Z,-1.10
2018-11-23T05:28:15.920Z,-1.12
2018-11-23T05:29:23.982Z,-1.09
2018-11-23T05:30:32.070Z,-1.05
2018-11-23T05:31:40.077Z,-1.07
2018-11-23T05:32:48.143Z,-1.09
2018-11-23T05:33:56.193Z,-1.12
2018-11-23T05:35:04.241Z,-1.16
2018-11-23T05:36:12.297Z,-1.12
2018-11-23T05:37:20.363Z,-1.13
2018-11-23T05:38:28.455Z,-1.17
2018-11-23T05:39:36.485Z,-1.37
2018-11-23T05:40:44.532Z,-1.27
2018-11-23T05:41:52.590Z,-1.33
2018-11-23T05:43:04.350Z,-1.35
2018-11-23T05:44:08.715Z,-1.37
2018-11-23T05:45:16.759Z,-1.35
2018-11-23T05:46:24.815Z,-1.34
2018-11-23T05:47:32.874Z,-1.34
2018-11-23T05:48:40.922Z,-1.23
2018-11-23T05:49:48.970Z,-1.22
2018-11-23T05:50:57.188Z,-1.27
2018-11-23T05:52:05.084Z,-1.19
2018-11-23T05:53:13.223Z,-1.19
2018-11-23T05:54:21.789Z,-1.16
2018-11-23T05:55:29.247Z,-1.09
2018-11-23T05:56:37.306Z,-1.23
2018-11-23T05:57:45.348Z,-1.16
2018-11-23T05:58:53.434Z,-1.10
2018-11-23T06:00:01.487Z,-1.04
2018-11-23T06:01:09.551Z,-1.10
2018-11-23T06:02:17.578Z,-1.07
2018-11-23T06:03:25.645Z,-1.05
2018-11-23T06:04:33.708Z,-1.04
2018-11-23T06:05:41.764Z,-1.07
2018-11-23T06:06:49.796Z,-1.01
2018-11-23T06:07:57.867Z,-1.02
2018-11-23T06:09:05.915Z,-1.02
2018-11-23T06:10:13.979Z,-1.12
2018-11-23T06:11:22.022Z,-1.10
2018-11-23T06:12:30.078Z,-1.16
2018-11-23T06:13:38.138Z,-1.23
2018-11-23T06:14:46.205Z,-1.17
2018-11-23T06:15:54.246Z,-1.23
2018-11-23T06:17:02.393Z,-1.30
2018-11-23T06:18:10.348Z,-1.33
2018-11-23T06:19:18.406Z,-1.34
2018-11-23T06:20:26.459Z,-1.40
2018-11-23T06:21:34.543Z,-1.22
2018-11-23T06:22:42.638Z,-1.28
2018-11-23T06:23:50.652Z,-1.12
2018-11-23T06:24:58.692Z,-1.22
2018-11-23T06:26:06.774Z,-1.19
2018-11-23T06:27:14.831Z,-1.20
2018-11-23T06:28:22.864Z,-1.28
2018-11-23T06:29:30.920Z,-1.28
2018-11-23T06:30:38.996Z,-1.22
2018-11-23T06:31:47.031Z,-1.31
2018-11-23T06:32:55.089Z,-1.17
2018-11-23T06:34:03.148Z,-1.23
2018-11-23T06:35:11.199Z,-1.22
2018-11-23T06:36:19.257Z,-1.30
2018-11-23T06:37:27.295Z,-1.25
2018-11-23T06:38:35.349Z,-1.20
2018-11-23T06:39:43.413Z,-1.23
2018-11-23T06:40:51.479Z,-1.30
2018-11-23T06:41:59.532Z,-1.19
2018-11-23T06:43:07.578Z,-1.23
2018-11-23T06:44:15.653Z,-1.28
2018-11-23T06:45:23.664Z,-1.25
2018-11-23T06:46:31.749Z,-1.20
2018-11-23T06:47:39.807Z,-1.23
2018-11-23T06:48:47.871Z,-1.20
2018-11-23T06:49:55.910Z,-1.22
2018-11-23T06:51:03.958Z,-1.25
2018-11-23T06:52:12.020Z,-1.23
2018-11-23T06:53:20.109Z,-1.31
2018-11-23T06:54:28.134Z,-1.37
2018-11-23T06:55:36.204Z,-1.34
2018-11-23T06:56:44.266Z,-1.33
2018-11-23T06:57:52.284Z,-1.37
2018-11-23T06:59:00.381Z,-1.33
2018-11-23T07:00:08.423Z,-1.40
2018-11-23T07:01:16.474Z,-1.43
2018-11-23T07:02:24.535Z,-1.41
2018-11-23T07:03:32.580Z,-1.33
2018-11-23T07:04:40.661Z,-1.37
2018-11-23T07:05:48.734Z,-1.31
2018-11-23T07:06:56.754Z,-1.41
2018-11-23T07:08:04.827Z,-1.33
2018-11-23T07:09:12.876Z,-1.38
2018-11-23T07:10:20.923Z,-1.34
2018-11-23T07:11:29.053Z,-1.33
2018-11-23T07:12:37.021Z,-1.41
2018-11-23T07:13:45.100Z,-1.35
2018-11-23T07:14:53.140Z,-1.30
2018-11-23T07:16:01.182Z,-1.41
2018-11-23T07:17:09.267Z,-1.33
2018-11-23T07:18:17.317Z,-1.34
2018-11-23T07:19:25.375Z,-1.30
2018-11-23T07:20:33.423Z,-1.38
2018-11-23T07:21:41.488Z,-1.30
2018-11-23T07:22:49.550Z,-1.35
2018-11-23T07:23:57.596Z,-1.40
2018-11-23T07:25:05.642Z,-1.37
2018-11-23T07:26:14.684Z,-1.25
2018-11-23T07:27:21.771Z,-1.23
2018-11-23T07:28:29.821Z,-1.30
2018-11-23T07:29:37.874Z,-1.23
2018-11-23T07:30:45.942Z,-1.17
2018-11-23T07:31:53.955Z,-1.16
2018-11-23T07:33:02.043Z,-1.10
2018-11-23T07:34:10.098Z,-1.12
2018-11-23T07:35:18.153Z,-1.01
2018-11-23T07:36:26.229Z,-0.98
2018-11-23T07:37:34.259Z,-1.05
2018-11-23T07:38:42.380Z,-1.10
2018-11-23T07:39:50.388Z,-0.95
2018-11-23T07:40:58.445Z,-0.91
2018-11-23T07:42:06.508Z,-0.86
2018-11-23T07:43:14.535Z,-0.82
2018-11-23T07:44:22.618Z,-0.70
2018-11-23T07:45:30.770Z,-0.72
2018-11-23T07:46:38.727Z,-0.73
2018-11-23T07:47:46.766Z,-0.57
2018-11-23T07:48:54.824Z,-0.57
2018-11-23T07:50:02.910Z,-0.42
2018-11-23T07:51:10.948Z,-0.55
2018-11-23T07:52:18.991Z,-0.44
2018-11-23T07:53:27.048Z,-0.33
2018-11-23T07:54:35.223Z,-0.44
2018-11-23T07:55:43.242Z,-0.43
2018-11-23T07:56:51.335Z,-0.44
2018-11-23T07:57:59.359Z,-0.40
2018-11-23T07:59:07.393Z,-0.28
2018-11-23T08:00:15.522Z,-0.34
2018-11-23T08:01:23.546Z,-0.18
2018-11-23T08:02:31.623Z,-0.25
2018-11-23T08:03:39.676Z,-0.28
2018-11-23T08:04:47.737Z,-0.29
2018-11-23T08:05:55.759Z,-0.21
2018-11-23T08:07:03.896Z,-0.19
2018-11-23T08:08:11.909Z,-0.18
2018-11-23T08:09:20.066Z,-0.10
2018-11-23T08:10:27.979Z,-0.03
2018-11-23T08:11:35.958Z,-0.03
2018-11-23T08:12:44.149Z,0.02
2018-11-23T08:13:52.299Z,0.13
2018-11-23T08:15:00.204Z,0.10
2018-11-23T08:16:08.327Z,0.20
2018-11-23T08:17:16.398Z,0.18
2018-11-23T08:18:24.394Z,0.31
2018-11-23T08:19:32.495Z,0.39
2018-11-23T08:20:40.533Z,0.44
2018-11-23T08:21:48.602Z,0.42
2018-11-23T08:22:56.581Z,0.42
2018-11-23T08:24:04.828Z,0.57
2018-11-23T08:25:12.646Z,0.57
2018-11-23T08:26:20.805Z,0.65
2018-11-23T08:27:28.873Z,0.70
2018-11-23T08:28:36.948Z,0.69
2018-11-23T08:29:45.008Z,0.76
2018-11-23T08:30:53.105Z,0.69
2018-11-23T08:32:01.123Z,0.79
2018-11-23T08:33:09.135Z,0.86
2018-11-23T08:34:17.118Z,0.86
2018-11-23T08:35:25.201Z,0.86
2018-11-23T08:36:33.329Z,0.84
2018-11-23T08:37:41.292Z,0.84
2018-11-23T08:38:49.494Z,0.87
2018-11-23T08:39:57.628Z,0.88
2018-11-23T08:41:05.584Z,0.91
2018-11-23T08:42:13.605Z,0.93
2018-11-23T08:43:21.690Z,0.88
2018-11-23T08:44:29.762Z,1.08
2018-11-23T08:45:37.966Z,1.00
2018-11-23T08:46:45.882Z,1.04
2018-11-23T08:47:53.903Z,0.97
2018-11-23T08:49:01.974Z,1.02
2018-11-23T08:50:10.114Z,1.00
2018-11-23T08:51:18.081Z,0.97
2018-11-23T08:52:26.059Z,0.94
2018-11-23T08:53:34.215Z,1.02
2018-11-23T08:54:42.183Z,1.02
2018-11-23T08:55:50.225Z,1.02
2018-11-23T08:56:58.331Z,0.98
2018-11-23T08:58:06.449Z,1.00
2018-11-23T08:59:14.496Z,1.14
2018-11-23T09:00:22.511Z,1.11
2018-11-23T09:01:30.609Z,1.14
2018-11-23T09:02:38.582Z,1.14
2018-11-23T09:03:46.735Z,1.23
2018-11-23T09:04:54.811Z,1.30
2018-11-23T09:06:02.869Z,1.16
2018-11-23T09:07:10.954Z,1.23
2018-11-23T09:08:18.990Z,1.30
2018-11-23T09:09:27.021Z,1.33
2018-11-23T09:10:35.114Z,1.37
2018-11-23T09:11:43.058Z,1.47
2018-11-23T09:12:51.205Z,1.54
2018-11-23T09:13:59.156Z,1.54
2018-11-23T09:15:07.329Z,1.52
2018-11-23T09:16:15.317Z,1.55
2018-11-23T09:17:23.412Z,1.62
2018-11-23T09:18:31.694Z,1.70
2018-11-23T09:19:39.588Z,1.80
2018-11-23T09:20:47.648Z,1.79
2018-11-23T09:21:55.806Z,1.91
2018-11-23T09:23:03.758Z,1.99
2018-11-23T09:24:11.828Z,1.90
2018-11-23T09:25:19.747Z,2.05
2018-11-23T09:26:27.919Z,2.00
2018-11-23T09:27:35.982Z,2.06
2018-11-23T09:28:44.026Z,2.10
2018-11-23T09:29:52.187Z,2.23
2018-11-23T09:31:00.134Z,2.27
2018-11-23T09:32:08.166Z,2.35
2018-11-23T09:33:16.421Z,2.30
2018-11-23T09:34:24.241Z,2.30
2018-11-23T09:35:32.364Z,2.35
2018-11-23T09:36:40.444Z,2.31
2018-11-23T09:37:48.512Z,2.35
2018-11-23T09:38:56.550Z,2.20
2018-11-23T09:40:04.647Z,2.17
2018-11-23T09:41:12.669Z,2.28
2018-11-23T09:42:20.716Z,2.25
2018-11-23T09:43:28.808Z,2.30
2018-11-23T09:44:36.840Z,2.07
2018-11-23T09:45:44.831Z,2.07
2018-11-23T09:46:53.009Z,1.95
2018-11-23T09:48:00.965Z,2.03
2018-11-23T09:49:09.158Z,1.99
2018-11-23T09:50:17.107Z,2.09
2018-11-23T09:51:25.252Z,1.99
2018-11-23T09:52:33.183Z,1.87
2018-11-23T09:53:41.341Z,1.98
2018-11-23T09:54:49.425Z,2.02
2018-11-23T09:55:57.459Z,2.05
2018-11-23T09:57:05.432Z,2.05
2018-11-23T09:58:13.682Z,2.02
2018-11-23T09:59:21.649Z,1.98
2018-11-23T10:00:29.608Z,1.77
2018-11-23T10:01:37.785Z,1.84
2018-11-23T10:02:45.854Z,1.88
2018-11-23T10:03:53.792Z,1.90
2018-11-23T10:05:01.833Z,2.03
2018-11-23T10:06:10.099Z,2.02
2018-11-23T10:07:17.941Z,2.02
2018-11-23T10:08:26.026Z,2.02
2018-11-23T10:09:34.176Z,2.12
2018-11-23T10:10:42.198Z,2.21
2018-11-23T10:11:50.308Z,2.30
2018-11-23T10:12:58.352Z,2.24
2018-11-23T10:14:06.427Z,2.02
2018-11-23T10:15:14.419Z,2.09
2018-11-23T10:16:22.509Z,2.27
2018-11-23T10:17:30.590Z,2.25
2018-11-23T10:18:38.634Z,2.23
2018-11-23T10:19:46.758Z,2.31
2018-11-23T10:20:54.686Z,2.38
2018-11-23T10:22:02.731Z,2.34
2018-11-23T10:23:10.776Z,2.34
2018-11-23T10:24:18.858Z,2.42
2018-11-23T10:25:27.005Z,2.49
2018-11-23T10:26:35.086Z,2.48
2018-11-23T10:27:43.020Z,2.60
2018-11-23T10:28:51.168Z,2.54
2018-11-23T10:29:59.179Z,2.46
2018-11-23T10:31:07.317Z,2.45
2018-11-23T10:32:15.312Z,2.49
2018-11-23T10:33:28.131Z,2.48
2018-11-23T10:34:31.562Z,2.49
2018-11-23T10:35:39.426Z,2.54
2018-11-23T10:36:47.505Z,2.54
2018-11-23T10:37:55.676Z,2.53
2018-11-23T10:39:03.612Z,2.49
2018-11-23T10:40:11.665Z,2.49
2018-11-23T10:41:19.812Z,2.45
2018-11-23T10:42:27.880Z,2.49
2018-11-23T10:43:35.967Z,2.54
2018-11-23T10:44:44.000Z,2.53
2018-11-23T10:45:52.063Z,2.52
2018-11-23T10:47:00.241Z,2.53
2018-11-23T10:48:08.176Z,2.60
2018-11-23T10:49:16.230Z,2.52
2018-11-23T10:50:24.296Z,2.64
2018-11-23T10:51:32.263Z,2.71
2018-11-23T10:52:40.608Z,2.67
2018-11-23T10:53:48.455Z,2.74
2018-11-23T10:54:56.540Z,2.82
2018-11-23T10:56:04.477Z,2.74
2018-11-23T10:57:12.648Z,2.79
2018-11-23T10:58:20.609Z,2.79
2018-11-23T10:59:28.757Z,2.87
2018-11-23T11:00:36.899Z,2.97
2018-11-23T11:01:44.762Z,2.97
2018-11-23T11:02:52.964Z,3.02
2018-11-23T11:04:01.021Z,3.08
2018-11-23T11:05:08.965Z,3.14
2018-11-23T11:06:17.104Z,3.08
2018-11-23T11:07:25.114Z,3.06
2018-11-23T11:08:33.207Z,3.13
2018-11-23T11:09:41.214Z,3.03
2018-11-23T11:10:49.359Z,3.11
2018-11-23T11:11:57.408Z,3.24
2018-11-23T11:13:05.463Z,3.28
2018-11-23T11:14:13.491Z,3.35
2018-11-23T11:15:21.623Z,3.51
2018-11-23T11:16:29.600Z,3.62
2018-11-23T11:17:37.695Z,3.76
2018-11-23T11:18:45.843Z,3.78
2018-11-23T11:19:53.820Z,3.93
2018-11-23T11:21:02.023Z,4.12
2018-11-23T11:22:09.918Z,4.02
2018-11-23T11:23:18.007Z,4.22
2018-11-23T11:24:26.072Z,4.18
2018-11-23T11:25:34.086Z,4.22
2018-11-23T11:26:42.205Z,4.34
2018-11-23T11:27:50.131Z,4.45
2018-11-23T11:28:58.197Z,4.29
2018-11-23T11:30:06.275Z,4.06
2018-11-23T11:31:14.359Z,4.11
2018-11-23T11:32:22.400Z,4.06
2018-11-23T11:33:30.477Z,3.94
2018-11-23T11:34:38.518Z,3.98
2018-11-23T11:35:46.565Z,4.06
2018-11-23T11:36:54.657Z,4.16
2018-11-23T11:38:02.686Z,4.22
2018-11-23T11:39:10.765Z,4.33
2018-11-23T11:40:18.810Z,4.47
2018-11-23T11:41:26.859Z,4.58
2018-11-23T11:42:34.922Z,4.62
2018-11-23T11:43:42.996Z,4.77
2018-11-23T11:44:51.043Z,4.80
2018-11-23T11:45:59.125Z,4.86
2018-11-23T11:47:07.205Z,4.82
2018-11-23T11:48:15.233Z,4.84
2018-11-23T11:49:23.296Z,4.94
2018-11-23T11:50:31.356Z,5.03
2018-11-23T11:51:39.398Z,5.07
2018-11-23T11:52:47.491Z,5.13
2018-11-23T11:53:55.555Z,5.15
2018-11-23T11:55:03.606Z,5.00
2018-11-23T11:56:11.648Z,5.07
2018-11-23T11:57:19.737Z,5.10
2018-11-23T11:58:27.771Z,5.06
2018-11-23T11:59:35.833Z,5.00
2018-11-23T12:00:43.906Z,5.04
2018-11-23T12:01:52.019Z,5.13
2018-11-23T12:03:00.049Z,5.10
2018-11-23T12:04:08.097Z,5.22
2018-11-23T12:05:16.146Z,5.24
2018-11-23T12:06:24.226Z,5.24
2018-11-23T12:07:32.389Z,5.03
2018-11-23T12:08:40.502Z,4.96
2018-11-23T12:09:48.530Z,4.91
2018-11-23T12:10:56.787Z,4.91
2018-11-23T12:12:04.632Z,4.85
2018-11-23T12:13:12.817Z,4.89
2018-11-23T12:14:20.702Z,4.77
2018-11-23T12:15:28.797Z,4.80
2018-11-23T12:16:36.818Z,4.89
2018-11-23T12:17:44.906Z,4.85
2018-11-23T12:18:53.013Z,4.89
2018-11-23T12:20:01.048Z,4.97
2018-11-23T12:21:09.105Z,5.07
2018-11-23T12:22:17.061Z,5.07
2018-11-23T12:23:25.213Z,5.00
2018-11-23T12:24:33.318Z,5.02
2018-11-23T12:25:41.252Z,5.10
2018-11-23T12:26:49.424Z,5.18
2018-11-23T12:27:57.465Z,5.22
2018-11-23T12:29:05.455Z,5.22
2018-11-23T12:30:13.627Z,5.28
2018-11-23T12:31:21.568Z,5.28
2018-11-23T12:32:29.626Z,5.45
2018-11-23T12:33:37.807Z,5.38
2018-11-23T12:34:45.735Z,5.39
2018-11-23T12:35:53.907Z,5.48
2018-11-23T12:37:01.981Z,5.49
2018-11-23T12:38:09.926Z,5.49
2018-11-23T12:39:18.012Z,5.51
2018-11-23T12:40:26.180Z,5.57
2018-11-23T12:41:34.180Z,5.60
2018-11-23T12:42:42.275Z,5.56
2018-11-23T12:43:50.323Z,5.54
2018-11-23T12:44:58.406Z,5.49
2018-11-23T12:46:06.349Z,5.57
2018-11-23T12:47:14.522Z,5.40
2018-11-23T12:48:22.581Z,5.53
2018-11-23T12:49:30.644Z,5.48
2018-11-23T12:50:38.698Z,5.56
2018-11-23T12:51:46.769Z,5.43
2018-11-23T12:52:54.805Z,5.45
2018-11-23T12:54:02.873Z,5.42
2018-11-23T12:55:10.948Z,5.39
2018-11-23T12:56:18.983Z,5.36
2018-11-23T12:57:27.071Z,5.45
2018-11-23T12:58:35.101Z,5.36
2018-11-23T12:59:43.218Z,5.33
2018-11-23T13:00:51.258Z,5.51
2018-11-23T13:01:59.256Z,5.48
2018-11-23T13:03:07.380Z,5.49
2018-11-23T13:04:15.446Z,5.53
2018-11-23T13:05:23.389Z,5.46
2018-11-23T13:06:31.459Z,5.51
2018-11-23T13:07:39.587Z,5.49
2018-11-23T13:08:47.668Z,5.36
2018-11-23T13:09:55.816Z,5.43
2018-11-23T13:11:03.721Z,5.35
2018-11-23T13:12:11.771Z,5.35
2018-11-23T13:13:19.930Z,5.38
2018-11-23T13:14:27.889Z,5.35
2018-11-23T13:15:36.043Z,5.39
2018-11-23T13:16:44.011Z,5.42
2018-11-23T13:17:52.148Z,5.43
2018-11-23T13:19:00.178Z,5.36
2018-11-23T13:20:08.293Z,5.39
2018-11-23T13:21:16.354Z,5.36
2018-11-23T13:22:24.394Z,5.40
2018-11-23T13:23:32.409Z,5.42
2018-11-23T13:24:40.669Z,5.51
2018-11-23T13:25:48.592Z,5.54
2018-11-23T13:26:56.665Z,5.40
2018-11-23T13:28:04.624Z,5.45
2018-11-23T13:29:16.135Z,5.46
2018-11-23T13:30:20.855Z,5.33
2018-11-23T13:31:28.912Z,5.38
2018-11-23T13:32:36.871Z,5.38
2018-11-23T13:33:45.051Z,5.31
2018-11-23T13:34:53.162Z,5.39
2018-11-23T13:36:01.172Z,5.35
2018-11-23T13:37:09.215Z,5.33
2018-11-23T13:38:17.173Z,5.33
2018-11-23T13:39:25.316Z,5.49
2018-11-23T13:40:33.286Z,5.38
2018-11-23T13:41:41.439Z,5.45
2018-11-23T13:42:49.479Z,5.33
2018-11-23T13:43:57.560Z,5.35
2018-11-23T13:45:05.701Z,5.33
2018-11-23T13:46:13.569Z,5.46
2018-11-23T13:47:22.422Z,5.30
2018-11-23T13:48:29.834Z,5.42
2018-11-23T13:49:37.784Z,5.48
2018-11-23T13:50:45.945Z,5.39
2018-11-23T13:51:53.945Z,5.31
2018-11-23T13:53:01.997Z,5.30
2018-11-23T13:54:10.020Z,5.27
2018-11-23T13:55:18.177Z,5.24
2018-11-23T13:56:26.237Z,5.25
2018-11-23T13:57:34.192Z,5.22
2018-11-23T13:58:42.250Z,5.13
2018-11-23T13:59:50.443Z,5.04
2018-11-23T14:00:58.415Z,5.07
2018-11-23T14:02:06.514Z,5.00
2018-11-23T14:03:14.644Z,4.96
2018-11-23T14:04:22.686Z,5.02
2018-11-23T14:05:30.734Z,4.97
2018-11-23T14:06:38.793Z,4.99
2018-11-23T14:07:46.862Z,5.03
2018-11-23T14:08:54.814Z,4.97
2018-11-23T14:10:02.872Z,4.78
2018-11-23T14:11:11.017Z,4.60
2018-11-23T14:12:19.081Z,4.47
2018-11-23T14:13:27.170Z,4.45
2018-11-23T14:14:35.321Z,4.50
2018-11-23T14:15:43.259Z,4.59
2018-11-23T14:16:51.205Z,4.48
2018-11-23T14:17:59.398Z,4.55
2018-11-23T14:19:07.406Z,4.54
2018-11-23T14:20:15.545Z,4.59
2018-11-23T14:21:23.613Z,4.54
2018-11-23T14:22:31.516Z,4.60
2018-11-23T14:23:39.586Z,4.60
2018-11-23T14:24:47.761Z,4.59
2018-11-23T14:25:55.882Z,4.47
2018-11-23T14:27:03.859Z,4.37
2018-11-23T14:28:11.928Z,4.29
2018-11-23T14:29:20.055Z,4.32
2018-11-23T14:30:27.944Z,4.20
2018-11-23T14:31:36.057Z,4.08
2018-11-23T14:32:44.212Z,4.15
2018-11-23T14:33:52.119Z,4.08
2018-11-23T14:35:00.189Z,4.04
2018-11-23T14:36:08.235Z,4.12
2018-11-23T14:37:16.403Z,4.05
2018-11-23T14:38:24.531Z,4.06
2018-11-23T14:39:32.488Z,4.15
2018-11-23T14:40:40.611Z,4.20
2018-11-23T14:41:48.655Z,4.16
2018-11-23T14:42:56.723Z,4.06
2018-11-23T14:44:06.862Z,4.08
2018-11-23T14:45:12.766Z,4.05
2018-11-23T14:46:20.785Z,4.08
2018-11-23T14:47:28.953Z,4.12
2018-11-23T14:48:37.093Z,4.15
2018-11-23T14:49:44.964Z,4.15